createdAt,value
2017-12-24T00:00:20.918Z,82.19
2017-12-24T00:01:29.744Z,82.28
2017-12-24T00:02:38.579Z,82
2017-12-24T00:03:47.450Z,82.19
2017-12-24T00:04:56.281Z,82.38
2017-12-24T00:06:05.111Z,82.09
2017-12-24T00:07:14.215Z,82.19
2017-12-24T00:08:23.043Z,82.19
2017-12-24T00:09:32.023Z,81.9
2017-12-24T00:10:40.851Z,82.19
2017-12-24T00:11:49.678Z,81.9
2017-12-24T00:12:58.505Z,82
2017-12-24T00:14:07.333Z,82.19
2017-12-24T00:15:16.584Z,82.38
2017-12-24T00:16:25.412Z,82.28
2017-12-24T00:17:34.511Z,82.38
2017-12-24T00:18:43.341Z,82.19
2017-12-24T00:19:52.171Z,82.28
2017-12-24T00:21:01.001Z,82.09
2017-12-24T00:22:09.828Z,82
2017-12-24T00:23:18.657Z,82
2017-12-24T00:24:27.486Z,82.38
2017-12-24T00:25:36.591Z,82.09
2017-12-24T00:26:45.573Z,82.57
2017-12-24T00:27:54.400Z,82.38
2017-12-24T00:29:03.510Z,82.76
2017-12-24T00:30:12.336Z,82.38
2017-12-24T00:31:21.165Z,82.48
2017-12-24T00:32:30.092Z,82.28
2017-12-24T00:33:39.473Z,82.38
2017-12-24T00:34:48.302Z,82.28
2017-12-24T00:35:57.129Z,82.57
2017-12-24T00:37:05.958Z,82.57
2017-12-24T00:38:14.788Z,82.48
2017-12-24T00:39:23.619Z,82.57
2017-12-24T00:40:32.446Z,82.76
2017-12-24T00:41:41.319Z,82.86
2017-12-24T00:42:50.105Z,82.67
2017-12-24T00:43:58.934Z,82.67
2017-12-24T00:45:07.763Z,82.67
2017-12-24T00:46:16.592Z,82.48
2017-12-24T00:47:25.418Z,82.76
2017-12-24T00:48:34.248Z,82.95
2017-12-24T00:49:43.076Z,82.86
2017-12-24T00:50:51.904Z,82.67
2017-12-24T00:52:01.008Z,82.86
2017-12-24T00:53:10.109Z,82.48
2017-12-24T00:54:18.939Z,82.76
2017-12-24T00:55:27.766Z,83.33
2017-12-24T00:56:36.866Z,83.33
2017-12-24T00:57:45.695Z,83.62
2017-12-24T00:58:54.523Z,83.62
2017-12-24T01:00:03.352Z,83.62
2017-12-24T01:01:12.479Z,84.19
2017-12-24T01:02:21.306Z,84.19
2017-12-24T01:03:30.408Z,84.28
2017-12-24T01:04:39.240Z,84.09
2017-12-24T01:05:48.067Z,84
2017-12-24T01:06:57.047Z,84.19
2017-12-24T01:08:05.876Z,84
2017-12-24T01:09:14.708Z,84
2017-12-24T01:10:23.536Z,84
2017-12-24T01:11:32.364Z,84.19
2017-12-24T01:12:41.194Z,84.19
2017-12-24T01:13:50.022Z,84.38
2017-12-24T01:14:58.860Z,86.09
2017-12-24T01:16:07.682Z,86.18
2017-12-24T01:17:16.510Z,86.47
2017-12-24T01:18:25.587Z,86.85
2017-12-24T01:19:34.415Z,86.85
2017-12-24T01:20:43.244Z,86.85
2017-12-24T01:21:52.071Z,86.85
2017-12-24T01:23:00.897Z,87.52
2017-12-24T01:24:09.730Z,87.71
2017-12-24T01:25:18.559Z,87.99
2017-12-24T01:26:27.386Z,88.46
2017-12-24T01:27:36.215Z,88.56
2017-12-24T01:28:45.043Z,88.75
2017-12-24T01:29:54.297Z,88.94
2017-12-24T01:31:03.124Z,89.51
2017-12-24T01:32:11.951Z,89.51
2017-12-24T01:33:20.778Z,89.42
2017-12-24T01:34:29.606Z,89.42
2017-12-24T01:35:38.484Z,89.42
2017-12-24T01:36:47.311Z,89.14
2017-12-24T01:37:56.137Z,89.7
2017-12-24T01:39:04.972Z,89.42
2017-12-24T01:40:13.794Z,89.61
2017-12-24T01:41:22.774Z,89.89
2017-12-24T01:42:31.602Z,90.66
2017-12-24T01:43:40.708Z,90.08
2017-12-24T01:44:49.812Z,90.66
2017-12-24T01:45:58.641Z,90.75
2017-12-24T01:47:07.769Z,91.32
2017-12-24T01:48:17.153Z,90.47
2017-12-24T01:49:25.987Z,91.8
2017-12-24T01:50:35.365Z,91.89
2017-12-24T01:51:44.197Z,92.08
2017-12-24T01:52:53.027Z,92.08
2017-12-24T01:54:01.852Z,92.18
2017-12-24T01:55:10.683Z,92.08
2017-12-24T01:56:19.512Z,92.18
2017-12-24T01:57:28.338Z,91.99
2017-12-24T01:58:37.492Z,91.8
2017-12-24T01:59:46.321Z,91.61
2017-12-24T02:00:55.151Z,92.84
2017-12-24T02:02:03.980Z,92.03
2017-12-24T02:03:12.807Z,92.84
2017-12-24T02:04:21.888Z,92.84
2017-12-24T02:05:30.715Z,91.99
2017-12-24T02:06:39.543Z,92.84
2017-12-24T02:07:48.370Z,91.99
2017-12-24T02:08:57.198Z,92.27
2017-12-24T02:10:06.076Z,92.08
2017-12-24T02:11:14.905Z,92.18
2017-12-24T02:12:23.731Z,92.27
2017-12-24T02:13:32.561Z,92.36
2017-12-24T02:14:41.388Z,92.27
2017-12-24T02:15:50.216Z,92.18
2017-12-24T02:16:59.044Z,92.65
2017-12-24T02:18:07.873Z,92.56
2017-12-24T02:19:16.703Z,92.94
2017-12-24T02:20:25.531Z,91.99
2017-12-24T02:21:34.409Z,92.18
2017-12-24T02:22:43.236Z,92.18
2017-12-24T02:23:52.066Z,92.08
2017-12-24T02:25:00.894Z,92.27
2017-12-24T02:26:09.726Z,92.08
2017-12-24T02:27:18.832Z,92.08
2017-12-24T02:28:27.934Z,92.27
2017-12-24T02:29:36.763Z,92.36
2017-12-24T02:30:45.862Z,92.27
2017-12-24T02:31:54.695Z,92.27
2017-12-24T02:33:03.795Z,92.27
2017-12-24T02:34:12.624Z,92.65
2017-12-24T02:35:21.450Z,91.99
2017-12-24T02:36:30.329Z,92.18
2017-12-24T02:37:39.166Z,92.46
2017-12-24T02:38:47.998Z,92.08
2017-12-24T02:39:56.826Z,91.99
2017-12-24T02:41:05.660Z,92.65
2017-12-24T02:42:14.762Z,92.36
2017-12-24T02:43:23.588Z,92.08
2017-12-24T02:44:32.522Z,92.36
2017-12-24T02:45:41.354Z,92.18
2017-12-24T02:46:50.184Z,92.56
2017-12-24T02:47:59.011Z,92.18
2017-12-24T02:49:07.841Z,92.27
2017-12-24T02:50:16.774Z,92.75
2017-12-24T02:51:25.596Z,92.94
2017-12-24T02:52:34.700Z,92.65
2017-12-24T02:53:43.528Z,92.84
2017-12-24T02:54:52.358Z,92.65
2017-12-24T02:56:01.336Z,92.36
2017-12-24T02:57:10.163Z,92.36
2017-12-24T02:58:18.989Z,92.84
2017-12-24T02:59:27.824Z,92.46
2017-12-24T03:00:36.925Z,92.65
2017-12-24T03:01:46.053Z,92.65
2017-12-24T03:02:54.880Z,92.56
2017-12-24T03:04:03.707Z,92.46
2017-12-24T03:05:12.809Z,92.36
2017-12-24T03:06:21.636Z,92.75
2017-12-24T03:07:30.567Z,92.75
2017-12-24T03:08:39.398Z,93.04
2017-12-24T03:09:48.226Z,92.84
2017-12-24T03:10:57.053Z,92.56
2017-12-24T03:12:05.881Z,93.13
2017-12-24T03:13:14.706Z,92.56
2017-12-24T03:14:23.535Z,92.65
2017-12-24T03:15:32.366Z,92.75
2017-12-24T03:16:41.191Z,92.46
2017-12-24T03:17:50.018Z,92.75
2017-12-24T03:18:58.845Z,93.32
2017-12-24T03:20:07.670Z,92.56
2017-12-24T03:21:16.498Z,92.46
2017-12-24T03:22:25.323Z,92.56
2017-12-24T03:23:34.154Z,93.32
2017-12-24T03:24:43.406Z,93.23
2017-12-24T03:25:52.235Z,92.65
2017-12-24T03:27:01.334Z,93.13
2017-12-24T03:28:10.164Z,93.13
2017-12-24T03:29:18.992Z,93.23
2017-12-24T03:30:27.976Z,93.13
2017-12-24T03:31:36.804Z,93.32
2017-12-24T03:32:45.638Z,92.84
2017-12-24T03:33:54.467Z,93.13
2017-12-24T03:35:03.298Z,93.23
2017-12-24T03:36:12.678Z,93.13
2017-12-24T03:37:21.508Z,92.84
2017-12-24T03:38:30.609Z,93.13
2017-12-24T03:39:39.437Z,93.23
2017-12-24T03:40:48.265Z,93.13
2017-12-24T03:41:57.192Z,93.13
2017-12-24T03:43:06.021Z,93.04
2017-12-24T03:44:14.859Z,93.23
2017-12-24T03:45:23.681Z,93.23
2017-12-24T03:46:32.785Z,93.13
2017-12-24T03:47:41.663Z,93.23
2017-12-24T03:48:50.491Z,93.23
2017-12-24T03:49:59.320Z,92.84
2017-12-24T03:51:08.424Z,93.04
2017-12-24T03:52:17.253Z,93.13
2017-12-24T03:53:26.135Z,93.32
2017-12-24T03:54:34.963Z,93.13
2017-12-24T03:55:43.792Z,93.32
2017-12-24T03:56:52.621Z,93.23
2017-12-24T03:58:01.450Z,94.08
2017-12-24T03:59:10.277Z,93.51
2017-12-24T04:00:19.103Z,93.7
2017-12-24T04:01:27.933Z,93.98
2017-12-24T04:02:36.758Z,93.79
2017-12-24T04:03:45.585Z,93.7
2017-12-24T04:04:54.564Z,93.6
2017-12-24T04:06:03.390Z,94.18
2017-12-24T04:07:12.217Z,94.6
2017-12-24T04:08:21.046Z,95.22
2017-12-24T04:09:29.872Z,95.03
2017-12-24T04:10:38.852Z,95.22
2017-12-24T04:11:47.679Z,95.32
2017-12-24T04:12:56.777Z,95.22
2017-12-24T04:14:05.603Z,94.93
2017-12-24T04:15:14.432Z,95.03
2017-12-24T04:16:23.261Z,95.22
2017-12-24T04:17:32.093Z,95.7
2017-12-24T04:18:40.917Z,95.6
2017-12-24T04:19:49.744Z,95.41
2017-12-24T04:20:58.574Z,95.6
2017-12-24T04:22:07.554Z,95.79
2017-12-24T04:23:16.381Z,95.98
2017-12-24T04:24:25.208Z,95.51
2017-12-24T04:25:34.035Z,95.7
2017-12-24T04:26:42.863Z,95.6
2017-12-24T04:27:51.695Z,95.41
2017-12-24T04:29:00.526Z,95.6
2017-12-24T04:30:09.352Z,95.51
2017-12-24T04:31:18.737Z,95.41
2017-12-24T04:32:27.567Z,95.41
2017-12-24T04:33:36.969Z,95.7
2017-12-24T04:34:45.798Z,95.89
2017-12-24T04:35:54.625Z,95.7
2017-12-24T04:37:03.452Z,95.6
2017-12-24T04:38:12.279Z,95.89
2017-12-24T04:39:21.206Z,95.89
2017-12-24T04:40:30.034Z,95.89
2017-12-24T04:41:38.862Z,95.7
2017-12-24T04:42:47.690Z,95.51
2017-12-24T04:43:56.520Z,95.89
2017-12-24T04:45:05.548Z,95.89
2017-12-24T04:46:14.377Z,96.08
2017-12-24T04:47:23.205Z,96.17
2017-12-24T04:48:32.034Z,96.08
2017-12-24T04:49:40.864Z,95.98
2017-12-24T04:50:49.741Z,95.6
2017-12-24T04:51:58.571Z,95.6
2017-12-24T04:53:07.402Z,95.79
2017-12-24T04:54:16.228Z,95.98
2017-12-24T04:55:25.059Z,95.79
2017-12-24T04:56:33.990Z,96.55
2017-12-24T04:57:42.819Z,95.79
2017-12-24T04:58:51.646Z,95.98
2017-12-24T05:00:00.476Z,95.79
2017-12-24T05:01:09.305Z,95.6
2017-12-24T05:02:18.233Z,96.26
2017-12-24T05:03:27.062Z,96.74
2017-12-24T05:04:35.892Z,96.46
2017-12-24T05:05:44.721Z,95.7
2017-12-24T05:06:53.548Z,96.08
2017-12-24T05:08:02.426Z,95.7
2017-12-24T05:09:11.252Z,96.65
2017-12-24T05:10:20.082Z,96.65
2017-12-24T05:11:28.910Z,97.6
2017-12-24T05:12:38.020Z,96.94
2017-12-24T05:13:47.333Z,97.6
2017-12-24T05:14:56.163Z,97.6
2017-12-24T05:16:04.991Z,97.6
2017-12-24T05:17:13.820Z,97.79
2017-12-24T05:18:22.647Z,97.5
2017-12-24T05:19:31.626Z,97.41
2017-12-24T05:20:40.454Z,97.41
2017-12-24T05:21:49.282Z,97.79
2017-12-24T05:22:58.108Z,97.41
2017-12-24T05:24:06.934Z,97.6
2017-12-24T05:25:16.063Z,97.22
2017-12-24T05:26:24.889Z,97.6
2017-12-24T05:27:33.718Z,97.6
2017-12-24T05:28:42.606Z,96.84
2017-12-24T05:29:51.643Z,97.69
2017-12-24T05:31:00.475Z,97.41
2017-12-24T05:32:09.304Z,97.69
2017-12-24T05:33:18.129Z,97.41
2017-12-24T05:34:27.231Z,97.69
2017-12-24T05:35:36.065Z,97.5
2017-12-24T05:36:45.146Z,97.69
2017-12-24T05:37:53.975Z,97.69
2017-12-24T05:39:02.801Z,97.79
2017-12-24T05:40:11.630Z,97.22
2017-12-24T05:41:20.456Z,97.88
2017-12-24T05:42:29.382Z,97.69
2017-12-24T05:43:38.211Z,98.08
2017-12-24T05:44:47.039Z,98.08
2017-12-24T05:45:55.867Z,98.08
2017-12-24T05:47:04.694Z,97.5
2017-12-24T05:48:13.573Z,98.55
2017-12-24T05:49:22.403Z,99.31
2017-12-24T05:50:31.232Z,99.31
2017-12-24T05:51:40.063Z,99.41
2017-12-24T05:52:48.890Z,99.02
2017-12-24T05:53:57.868Z,99.5
2017-12-24T05:55:06.693Z,99.6
2017-12-24T05:56:15.523Z,99.79
2017-12-24T05:57:24.355Z,99.6
2017-12-24T05:58:33.730Z,99.12
2017-12-24T05:59:42.556Z,99.12
2017-12-24T06:00:51.388Z,99.79
2017-12-24T06:02:00.212Z,99.98
2017-12-24T06:03:09.040Z,99.69
2017-12-24T06:04:17.869Z,99.99
2017-12-24T06:05:26.750Z,99.99
2017-12-24T06:06:35.609Z,99.99
2017-12-24T06:07:44.477Z,99.99
2017-12-24T06:08:53.305Z,99.99
2017-12-24T06:10:02.135Z,99.99
2017-12-24T06:11:11.012Z,99.98
2017-12-24T06:12:20.144Z,99.98
2017-12-24T06:13:28.975Z,99.99
2017-12-24T06:14:37.803Z,99.98
2017-12-24T06:15:46.631Z,99.98
2017-12-24T06:16:55.462Z,99.98
2017-12-24T06:18:04.294Z,99.98
2017-12-24T06:19:13.126Z,99.98
2017-12-24T06:20:21.948Z,99.99
2017-12-24T06:21:30.776Z,99.88
2017-12-24T06:22:39.757Z,99.98
2017-12-24T06:23:48.583Z,99.99
2017-12-24T06:24:57.411Z,99.99
2017-12-24T06:26:06.241Z,99.99
2017-12-24T06:27:15.075Z,99.99
2017-12-24T06:28:23.904Z,99.99
2017-12-24T06:29:32.734Z,99.99
2017-12-24T06:30:41.565Z,99.99
2017-12-24T06:31:50.397Z,99.99
2017-12-24T06:32:59.225Z,99.99
2017-12-24T06:34:08.203Z,99.99
2017-12-24T06:35:17.033Z,99.99
2017-12-24T06:36:25.863Z,99.99
2017-12-24T06:37:34.691Z,99.99
2017-12-24T06:38:43.519Z,99.99
2017-12-24T06:39:52.449Z,99.99
2017-12-24T06:41:01.280Z,99.99
2017-12-24T06:42:10.385Z,99.99
2017-12-24T06:43:19.212Z,99.99
2017-12-24T06:44:28.043Z,99.99
2017-12-24T06:45:36.874Z,99.99
2017-12-24T06:46:45.706Z,99.99
2017-12-24T06:47:54.539Z,99.99
2017-12-24T06:49:03.371Z,99.99
2017-12-24T06:50:12.200Z,99.99
2017-12-24T06:51:21.079Z,99.99
2017-12-24T06:52:29.920Z,99.99
2017-12-24T06:53:38.751Z,99.99
2017-12-24T06:54:47.578Z,99.99
2017-12-24T06:55:56.410Z,99.99
2017-12-24T06:57:05.338Z,99.99
2017-12-24T06:58:14.167Z,99.99
2017-12-24T06:59:22.994Z,99.99
2017-12-24T07:00:32.150Z,99.99
2017-12-24T07:01:40.978Z,99.99
2017-12-24T07:02:49.906Z,99.99
2017-12-24T07:03:58.738Z,99.99
2017-12-24T07:05:07.568Z,99.99
2017-12-24T07:06:16.409Z,99.99
2017-12-24T07:07:25.236Z,99.99
2017-12-24T07:08:34.075Z,99.99
2017-12-24T07:09:42.896Z,99.99
2017-12-24T07:10:52.000Z,99.99
2017-12-24T07:12:01.106Z,99.99
2017-12-24T07:13:09.935Z,99.99
2017-12-24T07:14:18.920Z,99.99
2017-12-24T07:15:27.749Z,99.99
2017-12-24T07:16:36.584Z,99.99
2017-12-24T07:17:45.415Z,99.99
2017-12-24T07:18:54.240Z,99.99
2017-12-24T07:20:03.373Z,99.99
2017-12-24T07:21:12.265Z,99.99
2017-12-24T07:22:21.035Z,99.99
2017-12-24T07:23:29.864Z,99.99
2017-12-24T07:24:38.690Z,99.99
2017-12-24T07:25:47.627Z,99.99
2017-12-24T07:26:56.446Z,99.99
2017-12-24T07:28:05.275Z,99.99
2017-12-24T07:29:14.105Z,99.99
2017-12-24T07:30:22.933Z,99.99
2017-12-24T07:31:31.761Z,99.99
2017-12-24T07:32:40.870Z,99.99
2017-12-24T07:33:49.698Z,99.99
2017-12-24T07:34:58.528Z,99.99
2017-12-24T07:36:07.358Z,99.99
2017-12-24T07:37:16.862Z,99.99
2017-12-24T07:38:25.691Z,99.99
2017-12-24T07:39:34.521Z,99.99
2017-12-24T07:40:43.352Z,99.99
2017-12-24T07:41:52.279Z,99.99
2017-12-24T07:43:01.414Z,99.99
2017-12-24T07:44:10.515Z,99.99
2017-12-24T07:45:19.343Z,99.99
2017-12-24T07:46:28.173Z,99.99
2017-12-24T07:47:37.273Z,99.99
2017-12-24T07:48:46.105Z,99.99
2017-12-24T07:49:54.933Z,99.99
2017-12-24T07:51:03.762Z,99.99
2017-12-24T07:52:12.591Z,99.99
2017-12-24T07:53:21.422Z,99.99
2017-12-24T07:54:30.350Z,99.99
2017-12-24T07:55:39.456Z,99.99
2017-12-24T07:56:48.561Z,99.99
2017-12-24T07:57:57.662Z,99.99
2017-12-24T07:59:06.495Z,99.99
2017-12-24T08:00:15.697Z,99.99
2017-12-24T08:01:24.526Z,99.99
2017-12-24T08:02:33.356Z,99.99
2017-12-24T08:03:42.186Z,99.99
2017-12-24T08:04:51.016Z,99.99
2017-12-24T08:05:59.846Z,99.99
2017-12-24T08:07:08.672Z,99.99
2017-12-24T08:08:17.509Z,99.99
2017-12-24T08:09:26.336Z,99.99
2017-12-24T08:10:35.353Z,99.99
2017-12-24T08:11:44.458Z,99.99
2017-12-24T08:12:53.289Z,99.99
2017-12-24T08:14:02.116Z,99.99
2017-12-24T08:15:10.944Z,99.99
2017-12-24T08:16:19.780Z,99.99
2017-12-24T08:17:28.602Z,99.99
2017-12-24T08:18:37.431Z,99.99
2017-12-24T08:19:46.260Z,99.99
2017-12-24T08:20:55.088Z,99.99
2017-12-24T08:22:03.916Z,99.99
2017-12-24T08:23:12.745Z,99.99
2017-12-24T08:24:21.847Z,99.99
2017-12-24T08:25:30.678Z,99.99
2017-12-24T08:26:39.656Z,99.99
2017-12-24T08:27:48.487Z,99.99
2017-12-24T08:28:57.318Z,99.99
2017-12-24T08:30:06.147Z,99.99
2017-12-24T08:31:14.977Z,99.99
2017-12-24T08:32:23.805Z,99.99
2017-12-24T08:33:32.633Z,99.99
2017-12-24T08:34:41.462Z,99.99
2017-12-24T08:35:50.291Z,99.99
2017-12-24T08:36:59.421Z,99.99
2017-12-24T08:38:08.251Z,99.99
2017-12-24T08:39:17.128Z,99.99
2017-12-24T08:40:26.243Z,99.99
2017-12-24T08:41:35.071Z,99.99
2017-12-24T08:42:44.485Z,99.99
2017-12-24T08:43:53.587Z,99.99
2017-12-24T08:45:02.419Z,99.99
2017-12-24T08:46:11.250Z,99.99
2017-12-24T08:47:20.080Z,99.99
2017-12-24T08:48:28.913Z,99.99
2017-12-24T08:49:38.073Z,99.99
2017-12-24T08:50:47.950Z,99.99
2017-12-24T08:51:57.483Z,99.99
2017-12-24T08:53:06.828Z,99.99
2017-12-24T08:54:16.630Z,99.99
2017-12-24T08:55:25.671Z,99.99
2017-12-24T08:56:34.815Z,99.99
2017-12-24T08:57:43.712Z,99.99
2017-12-24T08:58:52.548Z,99.99
2017-12-24T09:00:01.473Z,99.99
2017-12-24T09:01:10.371Z,99.99
2017-12-24T09:02:19.227Z,99.99
2017-12-24T09:03:28.057Z,99.99
2017-12-24T09:04:36.892Z,99.99
2017-12-24T09:05:45.721Z,99.99
2017-12-24T09:06:54.553Z,99.99
2017-12-24T09:08:03.693Z,99.99
2017-12-24T09:09:12.844Z,99.99
2017-12-24T09:10:21.673Z,99.99
2017-12-24T09:11:30.856Z,99.99
2017-12-24T09:12:39.637Z,99.99
2017-12-24T09:13:49.859Z,99.99
2017-12-24T09:14:59.396Z,99.99
2017-12-24T09:16:08.633Z,99.99
2017-12-24T09:17:17.839Z,99.99
2017-12-24T09:18:27.021Z,99.99
2017-12-24T09:19:36.075Z,99.99
2017-12-24T09:20:45.603Z,99.99
2017-12-24T09:21:54.542Z,99.99
2017-12-24T09:23:03.673Z,99.99
2017-12-24T09:24:12.506Z,99.99
2017-12-24T09:25:21.335Z,99.99
2017-12-24T09:26:30.490Z,99.99
2017-12-24T09:27:39.285Z,99.99
2017-12-24T09:28:48.116Z,99.99
2017-12-24T09:29:56.947Z,99.99
2017-12-24T09:31:05.777Z,99.99
2017-12-24T09:32:14.607Z,99.99
2017-12-24T09:33:23.438Z,99.99
2017-12-24T09:34:32.270Z,99.99
2017-12-24T09:35:41.100Z,99.99
2017-12-24T09:36:49.930Z,99.99
2017-12-24T09:37:58.760Z,99.99
2017-12-24T09:39:07.870Z,99.99
2017-12-24T09:40:16.976Z,99.99
2017-12-24T09:41:25.806Z,99.99
2017-12-24T09:42:34.636Z,99.99
2017-12-24T09:43:43.464Z,99.99
2017-12-24T09:44:52.295Z,99.99
2017-12-24T09:46:01.378Z,99.99
2017-12-24T09:47:10.203Z,99.99
2017-12-24T09:48:19.034Z,99.99
2017-12-24T09:49:27.862Z,99.99
2017-12-24T09:50:36.691Z,99.99
2017-12-24T09:51:45.671Z,99.99
2017-12-24T09:52:54.503Z,99.99
2017-12-24T09:54:03.331Z,99.99
2017-12-24T09:55:12.161Z,99.99
2017-12-24T09:56:20.989Z,99.99
2017-12-24T09:57:30.069Z,99.99
2017-12-24T09:58:38.896Z,99.99
2017-12-24T09:59:47.725Z,99.99
2017-12-24T10:00:56.556Z,99.99
2017-12-24T10:02:05.672Z,99.99
2017-12-24T10:03:14.552Z,99.99
2017-12-24T10:04:23.381Z,99.99
2017-12-24T10:05:32.211Z,99.99
2017-12-24T10:06:41.316Z,99.99
2017-12-24T10:07:50.146Z,99.99
2017-12-24T10:08:58.973Z,99.99
2017-12-24T10:10:07.808Z,99.99
2017-12-24T10:11:16.635Z,99.99
2017-12-24T10:12:26.015Z,99.99
2017-12-24T10:13:34.845Z,99.99
2017-12-24T10:14:43.972Z,99.99
2017-12-24T10:15:52.808Z,99.99
2017-12-24T10:17:01.639Z,99.99
2017-12-24T10:18:10.466Z,99.99
2017-12-24T10:19:19.301Z,99.99
2017-12-24T10:20:28.557Z,99.99
2017-12-24T10:21:37.386Z,99.99
2017-12-24T10:22:46.216Z,99.99
2017-12-24T10:23:55.046Z,99.99
2017-12-24T10:25:04.149Z,99.99
2017-12-24T10:26:13.029Z,99.99
2017-12-24T10:27:21.859Z,99.99
2017-12-24T10:28:30.692Z,99.99
2017-12-24T10:29:39.516Z,99.99
2017-12-24T10:30:48.348Z,99.99
2017-12-24T10:31:57.327Z,99.99
2017-12-24T10:33:06.258Z,99.99
2017-12-24T10:34:15.089Z,99.99
2017-12-24T10:35:23.920Z,99.99
2017-12-24T10:36:32.749Z,99.99
2017-12-24T10:37:42.154Z,99.99
2017-12-24T10:38:50.985Z,99.99
2017-12-24T10:40:00.097Z,99.99
2017-12-24T10:41:09.228Z,99.99
2017-12-24T10:42:18.056Z,99.99
2017-12-24T10:43:26.985Z,99.99
2017-12-24T10:44:35.817Z,99.99
2017-12-24T10:45:44.649Z,99.99
2017-12-24T10:46:53.479Z,99.99
2017-12-24T10:48:02.309Z,99.99
2017-12-24T10:49:11.285Z,99.99
2017-12-24T10:50:20.120Z,99.99
2017-12-24T10:51:28.949Z,99.99
2017-12-24T10:52:37.780Z,99.99
2017-12-24T10:53:46.688Z,99.99
2017-12-24T10:54:55.568Z,99.99
2017-12-24T10:56:04.399Z,99.99
2017-12-24T10:57:13.509Z,99.99
2017-12-24T10:58:22.373Z,99.99
2017-12-24T10:59:31.479Z,99.99
2017-12-24T11:00:40.409Z,99.99
2017-12-24T11:01:49.237Z,99.99
2017-12-24T11:02:58.067Z,99.99
2017-12-24T11:04:06.898Z,99.99
2017-12-24T11:05:15.998Z,99.99
2017-12-24T11:06:25.128Z,99.99
2017-12-24T11:07:33.978Z,99.99
2017-12-24T11:08:42.806Z,99.99
2017-12-24T11:09:51.633Z,99.99
2017-12-24T11:11:00.462Z,99.99
2017-12-24T11:12:09.442Z,99.99
2017-12-24T11:13:18.473Z,99.99
2017-12-24T11:14:27.302Z,99.99
2017-12-24T11:15:36.134Z,99.99
2017-12-24T11:16:44.962Z,99.99
2017-12-24T11:17:53.942Z,99.99
2017-12-24T11:19:02.773Z,99.99
2017-12-24T11:20:11.877Z,99.99
2017-12-24T11:21:20.708Z,99.99
2017-12-24T11:22:29.540Z,99.99
2017-12-24T11:23:38.370Z,99.99
2017-12-24T11:24:47.204Z,99.99
2017-12-24T11:25:56.305Z,99.99
2017-12-24T11:27:05.139Z,99.99
2017-12-24T11:28:13.964Z,99.99
2017-12-24T11:29:22.897Z,99.99
2017-12-24T11:30:32.002Z,99.99
2017-12-24T11:31:40.829Z,99.99
2017-12-24T11:32:49.660Z,99.99
2017-12-24T11:33:58.489Z,99.99
2017-12-24T11:35:07.317Z,99.99
2017-12-24T11:36:16.146Z,99.99
2017-12-24T11:37:24.978Z,99.99
2017-12-24T11:38:33.808Z,99.99
2017-12-24T11:39:42.640Z,99.99
2017-12-24T11:40:51.624Z,99.99
2017-12-24T11:42:00.454Z,99.99
2017-12-24T11:43:09.561Z,99.99
2017-12-24T11:44:18.392Z,99.99
2017-12-24T11:45:27.223Z,99.99
2017-12-24T11:46:36.203Z,99.99
2017-12-24T11:47:45.034Z,99.99
2017-12-24T11:48:53.862Z,99.99
2017-12-24T11:50:02.692Z,99.99
2017-12-24T11:51:11.805Z,99.99
2017-12-24T11:52:20.736Z,99.99
2017-12-24T11:53:29.570Z,99.99
2017-12-24T11:54:38.396Z,99.99
2017-12-24T11:55:47.226Z,99.99
2017-12-24T11:56:56.056Z,99.99
2017-12-24T11:58:05.036Z,99.99
2017-12-24T11:59:13.865Z,99.99
2017-12-24T12:00:22.701Z,99.99
2017-12-24T12:01:31.533Z,99.99
2017-12-24T12:02:40.366Z,99.99
2017-12-24T12:03:49.196Z,99.99
2017-12-24T12:04:58.028Z,99.99
2017-12-24T12:06:06.857Z,99.99
2017-12-24T12:07:15.687Z,99.99
2017-12-24T12:08:24.791Z,99.99
2017-12-24T12:09:33.773Z,99.99
2017-12-24T12:10:42.603Z,99.99
2017-12-24T12:11:51.428Z,99.99
2017-12-24T12:13:00.258Z,99.99
2017-12-24T12:14:09.089Z,99.99
2017-12-24T12:15:18.074Z,99.99
2017-12-24T12:16:26.902Z,99.99
2017-12-24T12:17:35.729Z,99.99
2017-12-24T12:18:44.565Z,99.99
2017-12-24T12:19:53.675Z,99.99
2017-12-24T12:21:02.904Z,99.99
2017-12-24T12:22:11.773Z,99.99
2017-12-24T12:23:21.809Z,99.99
2017-12-24T12:24:31.047Z,99.99
2017-12-24T12:25:40.197Z,99.99
2017-12-24T12:26:49.383Z,99.99
2017-12-24T12:27:58.230Z,99.99
2017-12-24T12:29:07.065Z,99.99
2017-12-24T12:30:15.899Z,99.99
2017-12-24T12:31:24.778Z,99.99
2017-12-24T12:32:33.658Z,99.99
2017-12-24T12:33:42.487Z,99.99
2017-12-24T12:34:51.316Z,99.99
2017-12-24T12:36:00.144Z,99.99
2017-12-24T12:37:08.985Z,99.99
2017-12-24T12:38:17.957Z,99.99
2017-12-24T12:39:26.788Z,99.99
2017-12-24T12:40:35.899Z,99.99
2017-12-24T12:41:44.728Z,99.99
2017-12-24T12:42:53.558Z,99.99
2017-12-24T12:44:02.540Z,99.99
2017-12-24T12:45:11.366Z,99.99
2017-12-24T12:46:20.196Z,99.99
2017-12-24T12:47:29.029Z,99.99
2017-12-24T12:48:37.860Z,99.99
2017-12-24T12:49:46.840Z,99.99
2017-12-24T12:50:55.668Z,99.99
2017-12-24T12:52:04.500Z,99.99
2017-12-24T12:53:13.332Z,99.99
2017-12-24T12:54:22.164Z,99.99
2017-12-24T12:55:31.295Z,99.99
2017-12-24T12:56:40.124Z,99.99
2017-12-24T12:57:48.958Z,99.99
2017-12-24T12:58:58.062Z,99.99
2017-12-24T13:00:06.891Z,99.99
2017-12-24T13:01:15.825Z,99.99
2017-12-24T13:02:24.654Z,99.99
2017-12-24T13:03:33.483Z,99.99
2017-12-24T13:04:42.313Z,99.99
2017-12-24T13:05:51.144Z,99.99
2017-12-24T13:06:59.978Z,99.99
2017-12-24T13:08:09.082Z,99.99
2017-12-24T13:09:17.962Z,99.99
2017-12-24T13:10:26.791Z,99.99
2017-12-24T13:11:35.621Z,99.99
2017-12-24T13:12:44.551Z,99.99
2017-12-24T13:13:53.386Z,99.99
2017-12-24T13:15:02.217Z,99.99
2017-12-24T13:16:11.047Z,99.99
2017-12-24T13:17:19.877Z,99.99
2017-12-24T13:18:28.708Z,99.99
2017-12-24T13:19:37.539Z,99.99
2017-12-24T13:20:46.370Z,99.99
2017-12-24T13:21:55.200Z,99.99
2017-12-24T13:23:04.029Z,99.99
2017-12-24T13:24:12.857Z,99.99
2017-12-24T13:25:21.690Z,99.99
2017-12-24T13:26:30.526Z,99.99
2017-12-24T13:27:39.628Z,99.99
2017-12-24T13:28:48.458Z,99.99
2017-12-24T13:29:57.290Z,99.99
2017-12-24T13:31:06.124Z,99.99
2017-12-24T13:32:14.953Z,99.99
2017-12-24T13:33:23.783Z,99.99
2017-12-24T13:34:33.290Z,99.99
2017-12-24T13:35:42.128Z,99.99
2017-12-24T13:36:50.959Z,99.99
2017-12-24T13:37:59.788Z,99.99
2017-12-24T13:39:08.620Z,99.99
2017-12-24T13:40:17.452Z,99.99
2017-12-24T13:41:26.430Z,99.99
2017-12-24T13:42:35.263Z,99.99
2017-12-24T13:43:44.094Z,99.99
2017-12-24T13:44:52.929Z,99.99
2017-12-24T13:46:02.032Z,99.99
2017-12-24T13:47:11.165Z,99.99
2017-12-24T13:48:19.992Z,99.99
2017-12-24T13:49:28.826Z,99.99
2017-12-24T13:50:37.659Z,99.99
2017-12-24T13:51:46.485Z,99.99
2017-12-24T13:52:55.317Z,99.99
2017-12-24T13:54:04.424Z,99.99
2017-12-24T13:55:13.527Z,99.99
2017-12-24T13:56:22.357Z,99.99
2017-12-24T13:57:31.187Z,99.99
2017-12-24T13:58:40.353Z,99.99
2017-12-24T13:59:49.183Z,99.99
2017-12-24T14:00:58.013Z,99.99
2017-12-24T14:02:06.843Z,99.99
2017-12-24T14:03:15.672Z,99.99
2017-12-24T14:04:24.502Z,99.99
2017-12-24T14:05:33.333Z,99.99
2017-12-24T14:06:42.442Z,99.99
2017-12-24T14:07:51.270Z,99.99
2017-12-24T14:09:00.131Z,99.99
2017-12-24T14:10:08.949Z,99.99
2017-12-24T14:11:17.774Z,99.99
2017-12-24T14:12:26.606Z,99.99
2017-12-24T14:13:35.713Z,99.99
2017-12-24T14:14:44.549Z,99.99
2017-12-24T14:15:53.479Z,99.99
2017-12-24T14:17:02.308Z,99.99
2017-12-24T14:18:11.137Z,99.99
2017-12-24T14:19:19.969Z,99.99
2017-12-24T14:20:28.800Z,99.99
2017-12-24T14:21:37.930Z,99.99
2017-12-24T14:22:46.759Z,99.99
2017-12-24T14:23:55.590Z,99.99
2017-12-24T14:25:04.701Z,99.99
2017-12-24T14:26:13.537Z,99.99
2017-12-24T14:27:22.935Z,99.99
2017-12-24T14:28:31.763Z,99.99
2017-12-24T14:29:40.592Z,99.99
2017-12-24T14:30:49.424Z,99.99
2017-12-24T14:31:58.253Z,99.99
2017-12-24T14:33:07.180Z,99.99
2017-12-24T14:34:16.012Z,99.99
2017-12-24T14:35:24.841Z,99.99
2017-12-24T14:36:33.668Z,99.99
2017-12-24T14:37:42.499Z,99.99
2017-12-24T14:38:51.630Z,99.99
2017-12-24T14:40:00.459Z,99.99
2017-12-24T14:41:09.292Z,99.99
2017-12-24T14:42:18.119Z,99.99
2017-12-24T14:43:26.948Z,99.99
2017-12-24T14:44:35.830Z,99.99
2017-12-24T14:45:44.661Z,99.99
2017-12-24T14:46:53.489Z,99.99
2017-12-24T14:48:02.321Z,99.99
2017-12-24T14:49:11.156Z,99.99